Time;durP1;ratioP1;P1;durP2;ratioP2;P2;SDS_P1;SDS_P2;PMS_P1;PMS_P2;Temp;Humidity;BMP_temperature;BMP_pressure;BME280_temperature;BME280_humidity;BME280_pressure;Samples;Min_cycle;Max_cycle;Signal;HPM_P1;HPM_P2
2022/01/20 00:02:25;;;;;;;17.58;3.13;;;4.30;90.00;;;;;;5014120;28;20034;-78
2022/01/20 00:05:04;;;;;;;12.43;3.20;;;4.20;90.10;;;;;;5012830;28;20530;-78
2022/01/20 00:07:49;;;;;;;12.43;2.95;;;4.10;90.30;;;;;;5015412;28;20136;-76
2022/01/20 00:27:09;;;;;;;22.23;6.25;;;3.90;90.90;;;;;;5010214;28;20471;-77
2022/01/20 00:30:03;;;;;;;24.00;7.20;;;4.00;90.90;;;;;;5008906;28;20026;-75
2022/01/20 00:32:26;;;;;;;19.42;6.43;;;4.10;90.80;;;;;;5012169;28;20040;-76
2022/01/20 00:35:09;;;;;;;20.55;7.07;;;4.00;90.70;;;;;;5016596;28;20107;-79
2022/01/20 00:37:35;;;;;;;20.65;6.65;;;4.00;90.80;;;;;;5013428;28;20038;-78
2022/01/20 00:40:01;;;;;;;22.58;6.03;;;3.90;90.90;;;;;;5016140;28;20052;-77
2022/01/20 00:42:26;;;;;;;23.30;5.72;;;3.90;91.00;;;;;;5011505;28;20025;-77
2022/01/20 00:44:52;;;;;;;25.20;5.38;;;3.90;91.00;;;;;;5016883;28;20033;-75
2022/01/20 00:47:19;;;;;;;24.70;5.38;;;4.00;91.00;;;;;;5013260;28;20441;-76
2022/01/20 00:49:45;;;;;;;29.33;5.03;;;4.00;90.80;;;;;;5013869;28;20126;-76
2022/01/20 00:52:11;;;;;;;20.17;5.30;;;4.00;90.70;;;;;;5007833;28;20030;-78
2022/01/20 00:54:37;;;;;;;24.23;5.93;;;4.00;90.60;;;;;;5009512;28;20050;-76
2022/01/20 00:57:04;;;;;;;20.95;5.47;;;4.00;90.70;;;;;;5014081;28;20079;-78
2022/01/20 00:59:30;;;;;;;23.58;4.88;;;4.00;90.80;;;;;;5011017;28;20034;-77
2022/01/20 01:02:01;;;;;;;30.67;7.32;;;4.00;90.80;;;;;;5014679;28;20449;-78
2022/01/20 01:04:27;;;;;;;30.05;6.50;;;4.00;90.80;;;;;;5016036;28;20037;-77
2022/01/20 01:09:28;;;;;;;21.83;5.30;;;4.00;90.70;;;;;;5010599;28;20061;-75
2022/01/20 01:11:59;;;;;;;17.02;5.05;;;4.10;90.60;;;;;;5016379;28;20393;-79
2022/01/20 01:14:28;;;;;;;16.65;5.15;;;4.00;90.60;;;;;;5012039;28;20037;-78
2022/01/20 01:24:37;;;;;;;19.05;4.10;;;3.90;90.30;;;;;;5006828;28;20042;-74
2022/01/20 01:27:04;;;;;;;18.42;3.70;;;3.90;90.20;;;;;;5013293;28;20034;-77
2022/01/20 01:29:55;;;;;;;17.35;4.32;;;3.90;90.20;;;;;;5014286;28;20041;-76
2022/01/20 01:32:18;;;;;;;16.90;4.22;;;3.90;90.20;;;;;;5012716;28;20029;-80
2022/01/20 01:34:51;;;;;;;29.75;4.88;;;3.90;90.10;;;;;;5008743;28;20029;-76
2022/01/20 01:39:54;;;;;;;18.60;5.57;;;3.80;90.20;;;;;;5013620;28;20457;-74
2022/01/20 01:42:26;;;;;;;20.27;5.97;;;3.70;90.20;;;;;;5015541;28;20452;-78
2022/01/20 01:44:53;;;;;;;22.77;5.80;;;3.70;90.30;;;;;;5016408;28;20045;-79
2022/01/20 01:47:18;;;;;;;19.40;5.07;;;3.60;90.50;;;;;;5015072;28;20447;-75
2022/01/20 01:49:44;;;;;;;20.92;5.18;;;3.70;90.70;;;;;;5017291;28;20045;-75
2022/01/20 01:52:10;;;;;;;15.52;4.60;;;3.70;90.70;;;;;;5015663;28;20526;-78
2022/01/20 01:54:35;;;;;;;17.38;4.47;;;3.60;90.60;;;;;;5016696;28;20457;-77
2022/01/20 01:57:05;;;;;;;18.38;4.50;;;3.60;90.40;;;;;;5016696;28;20166;-74
2022/01/20 01:59:32;;;;;;;24.15;5.53;;;3.70;90.30;;;;;;5018100;28;20117;-77
2022/01/20 02:01:58;;;;;;;22.42;4.90;;;3.60;90.20;;;;;;5015134;28;20042;-77
2022/01/20 02:04:24;;;;;;;20.00;5.00;;;3.60;90.20;;;;;;5018314;28;20022;-76
2022/01/20 02:20:14;;;;;;;17.35;4.47;;;3.50;90.90;;;;;;5017644;28;20123;-77
2022/01/20 02:22:40;;;;;;;19.85;5.03;;;3.50;91.00;;;;;;5013951;28;20048;-77
2022/01/20 02:25:21;;;;;;;18.92;5.82;;;3.50;91.00;;;;;;5012982;28;20361;-79
2022/01/20 02:27:47;;;;;;;20.55;4.20;;;3.50;91.00;;;;;;5014051;28;20069;-75
2022/01/20 02:30:15;;;;;;;20.83;5.20;;;3.50;91.00;;;;;;5012002;28;20631;-78
2022/01/20 02:32:41;;;;;;;15.23;5.03;;;3.50;91.10;;;;;;5016672;28;20448;-76
2022/01/20 02:35:09;;;;;;;16.95;4.13;;;3.50;91.00;;;;;;5016182;28;20049;-78
2022/01/20 02:37:35;;;;;;;16.60;4.55;;;3.50;91.00;;;;;;5016112;28;20084;-77
2022/01/20 02:40:32;;;;;;;18.17;4.53;;;3.40;91.10;;;;;;5016826;28;20777;-75
2022/01/20 02:45:41;;;;;;;12.25;5.20;;;3.30;91.20;;;;;;5011693;28;20120;-81
2022/01/20 02:48:07;;;;;;;16.60;4.68;;;3.30;91.30;;;;;;5018604;28;20049;-76
2022/01/20 02:50:32;;;;;;;15.80;4.97;;;3.40;91.40;;;;;;5017493;28;20491;-78
2022/01/20 02:52:58;;;;;;;19.13;5.55;;;3.40;91.40;;;;;;5016449;28;20041;-75
2022/01/20 02:55:24;;;;;;;16.33;4.57;;;3.40;91.30;;;;;;5014461;28;20055;-74
2022/01/20 02:57:49;;;;;;;16.65;4.70;;;3.40;91.30;;;;;;5017967;28;20022;-77
2022/01/20 03:00:15;;;;;;;17.98;4.38;;;3.40;91.30;;;;;;5017347;28;20033;-76
2022/01/20 03:02:42;;;;;;;14.27;4.25;;;3.40;91.30;;;;;;5015447;28;20144;-77
2022/01/20 03:05:10;;;;;;;17.55;5.07;;;3.50;91.50;;;;;;5015235;28;20105;-77
2022/01/20 03:07:36;;;;;;;18.77;4.53;;;3.50;91.50;;;;;;5016934;28;20037;-76
2022/01/20 03:10:07;;;;;;;15.70;5.45;;;3.50;91.50;;;;;;5016159;28;20374;-76
2022/01/20 03:12:33;;;;;;;15.70;5.10;;;3.60;91.50;;;;;;5017179;28;20495;-78
2022/01/20 03:14:58;;;;;;;18.27;6.03;;;3.60;91.40;;;;;;5016027;28;20611;-75
2022/01/20 03:17:24;;;;;;;18.95;5.45;;;3.60;91.60;;;;;;5013211;28;20053;-79
2022/01/20 03:19:50;;;;;;;21.13;5.78;;;3.60;91.60;;;;;;5016348;28;20164;-77
2022/01/20 03:22:16;;;;;;;18.55;6.15;;;3.60;91.70;;;;;;5015917;28;20029;-75
2022/01/20 03:24:42;;;;;;;15.50;4.90;;;3.60;91.80;;;;;;5017003;28;20109;-77
2022/01/20 03:27:08;;;;;;;15.27;5.35;;;3.60;91.90;;;;;;5017325;28;20048;-79
2022/01/20 03:29:34;;;;;;;16.63;5.80;;;3.60;91.90;;;;;;5016359;28;20610;-76
2022/01/20 03:31:59;;;;;;;17.08;5.47;;;3.60;91.90;;;;;;5010863;28;20041;-80
2022/01/20 03:34:25;;;;;;;21.02;5.28;;;3.60;91.90;;;;;;5015975;28;20294;-76
2022/01/20 03:36:52;;;;;;;20.38;5.95;;;3.60;92.00;;;;;;5015928;28;20049;-76
2022/01/20 03:39:18;;;;;;;14.80;5.55;;;3.50;92.00;;;;;;5008197;28;20483;-79
2022/01/20 03:41:43;;;;;;;15.05;4.78;;;3.60;92.10;;;;;;5014081;28;20041;-74
2022/01/20 03:44:09;;;;;;;20.60;5.60;;;3.60;92.20;;;;;;5015904;28;20033;-77
2022/01/20 03:46:35;;;;;;;23.30;5.88;;;3.60;92.20;;;;;;5016386;28;20030;-78
2022/01/20 03:49:09;;;;;;;15.63;5.22;;;3.50;92.20;;;;;;5016912;28;20041;-76
2022/01/20 03:51:36;;;;;;;21.65;6.53;;;3.50;92.30;;;;;;5010335;28;20030;-77
2022/01/20 03:54:04;;;;;;;20.85;5.90;;;3.50;92.30;;;;;;5013840;28;20427;-79
2022/01/20 03:56:31;;;;;;;17.75;5.68;;;3.50;92.40;;;;;;5009533;28;20467;-74
2022/01/20 03:58:57;;;;;;;17.25;4.82;;;3.60;92.50;;;;;;5017415;28;20041;-75
2022/01/20 04:01:22;;;;;;;18.98;6.20;;;3.60;92.50;;;;;;5015961;28;20038;-75
2022/01/20 04:03:48;;;;;;;21.10;6.22;;;3.60;92.50;;;;;;5017297;28;20397;-79
2022/01/20 04:06:15;;;;;;;18.10;4.93;;;3.60;92.50;;;;;;5015343;28;20117;-77
2022/01/20 04:08:43;;;;;;;19.45;5.68;;;3.70;92.40;;;;;;5015957;28;20041;-75
2022/01/20 04:11:23;;;;;;;19.30;5.15;;;3.70;92.40;;;;;;5015526;28;20038;-76
2022/01/20 04:13:50;;;;;;;15.98;4.90;;;3.70;92.40;;;;;;5010372;28;20076;-78
2022/01/20 04:16:24;;;;;;;17.23;5.22;;;3.70;92.30;;;;;;5015190;28;20270;-75
2022/01/20 04:18:56;;;;;;;17.50;5.13;;;3.80;92.30;;;;;;5010096;28;20072;-76
2022/01/20 04:21:27;;;;;;;19.85;5.00;;;3.80;92.20;;;;;;5015238;28;20101;-78
2022/01/20 04:23:53;;;;;;;14.10;4.97;;;3.80;92.20;;;;;;5014386;28;20041;-76
2022/01/20 04:26:20;;;;;;;18.42;5.22;;;3.90;92.20;;;;;;5009535;28;20033;-75
2022/01/20 04:28:45;;;;;;;16.60;4.75;;;3.90;92.10;;;;;;5017463;28;20065;-78
2022/01/20 04:31:12;;;;;;;15.80;4.82;;;3.90;92.10;;;;;;5015824;28;20130;-74
2022/01/20 04:33:38;;;;;;;14.27;4.75;;;4.00;92.00;;;;;;5012183;28;20033;-77
2022/01/20 04:36:05;;;;;;;20.10;5.40;;;4.00;92.00;;;;;;5015497;28;20374;-78
2022/01/20 04:38:31;;;;;;;17.17;5.25;;;3.90;91.90;;;;;;5013832;28;20119;-78
2022/01/20 04:40:57;;;;;;;21.48;5.07;;;4.00;91.90;;;;;;5013000;28;20044;-78
2022/01/20 04:43:24;;;;;;;18.98;5.07;;;4.00;91.90;;;;;;5014328;28;20029;-77
2022/01/20 04:45:58;;;;;;;23.42;6.10;;;4.10;91.80;;;;;;5011890;28;20099;-76
2022/01/20 04:48:49;;;;;;;16.27;5.82;;;4.00;91.80;;;;;;5014437;28;20408;-77
2022/01/20 04:59:28;;;;;;;15.57;5.38;;;4.00;91.70;;;;;;5011889;28;20036;-78
2022/01/20 05:01:54;;;;;;;20.25;5.70;;;3.90;91.70;;;;;;5013435;28;20069;-73
2022/01/20 05:04:21;;;;;;;17.52;4.70;;;3.90;91.80;;;;;;5012474;28;20033;-75
2022/01/20 05:06:48;;;;;;;17.30;5.53;;;3.90;91.80;;;;;;5014994;28;20038;-77
2022/01/20 05:09:19;;;;;;;18.58;5.30;;;3.80;91.90;;;;;;5014339;28;20436;-74
2022/01/20 05:11:56;;;;;;;18.25;5.30;;;3.80;91.90;;;;;;5012613;28;20496;-76
2022/01/20 05:14:22;;;;;;;19.05;5.70;;;3.80;91.90;;;;;;5013569;28;20127;-75
2022/01/20 05:16:48;;;;;;;25.23;5.10;;;3.80;91.90;;;;;;5013693;28;20026;-78
2022/01/20 05:19:14;;;;;;;17.42;4.75;;;3.80;91.80;;;;;;5016422;28;20447;-75
2022/01/20 05:21:39;;;;;;;18.88;5.30;;;3.80;91.90;;;;;;5020446;28;20026;-75
2022/01/20 05:24:05;;;;;;;23.15;5.53;;;3.80;91.90;;;;;;5012737;28;20434;-79
2022/01/20 05:26:31;;;;;;;17.90;4.72;;;3.80;91.90;;;;;;5017970;28;20044;-74
2022/01/20 05:28:57;;;;;;;18.45;4.70;;;3.90;91.80;;;;;;5012386;28;20297;-75
2022/01/20 05:31:22;;;;;;;18.55;4.47;;;3.90;91.60;;;;;;5010652;28;20037;-77
2022/01/20 05:33:48;;;;;;;20.70;5.13;;;3.90;91.50;;;;;;5015421;28;20037;-75
2022/01/20 05:36:14;;;;;;;19.42;5.13;;;3.90;91.50;;;;;;5013092;28;20572;-76
2022/01/20 05:38:39;;;;;;;25.60;4.85;;;3.90;91.40;;;;;;5011761;28;20046;-75
2022/01/20 05:41:05;;;;;;;21.00;4.47;;;3.90;91.20;;;;;;5014348;28;20596;-78
2022/01/20 05:43:31;;;;;;;17.15;4.10;;;4.10;91.00;;;;;;5017127;28;20547;-74
2022/01/20 05:45:56;;;;;;;27.02;5.82;;;4.00;90.90;;;;;;5017866;28;20290;-76
2022/01/20 05:48:33;;;;;;;22.52;4.70;;;4.00;90.80;;;;;;5007744;28;20054;-78
2022/01/20 05:50:59;;;;;;;19.95;4.00;;;4.10;90.70;;;;;;5007303;28;20045;-77
2022/01/20 05:53:25;;;;;;;23.75;4.60;;;4.10;90.50;;;;;;5005865;28;20247;-76
2022/01/20 05:55:50;;;;;;;25.30;5.05;;;4.20;90.40;;;;;;5011406;28;20347;-76
2022/01/20 05:58:16;;;;;;;23.20;4.68;;;4.20;90.30;;;;;;5013166;28;20030;-77
2022/01/20 06:00:42;;;;;;;16.55;4.05;;;4.40;90.00;;;;;;5014331;28;20117;-73
2022/01/20 06:05:52;;;;;;;13.83;3.00;;;4.90;87.20;;;;;;5007212;28;20432;-76
2022/01/20 06:08:18;;;;;;;14.50;2.88;;;4.90;86.90;;;;;;5011101;28;20293;-75
2022/01/20 06:10:44;;;;;;;16.38;3.42;;;4.90;86.90;;;;;;5013497;28;20037;-76
2022/01/20 06:13:10;;;;;;;14.32;2.65;;;4.90;87.10;;;;;;5009756;28;20034;-78
2022/01/20 06:15:36;;;;;;;14.77;2.88;;;4.90;87.50;;;;;;5014073;28;20025;-75
2022/01/20 06:18:02;;;;;;;10.85;2.45;;;4.90;87.90;;;;;;5012611;28;20245;-75
2022/01/20 06:20:28;;;;;;;9.65;2.42;;;4.80;88.40;;;;;;5011748;28;20356;-78
2022/01/20 06:22:54;;;;;;;9.13;2.25;;;4.80;89.00;;;;;;5008742;28;20109;-76
2022/01/20 06:25:20;;;;;;;13.60;2.30;;;4.70;89.50;;;;;;5011684;28;20041;-78
2022/01/20 06:27:46;;;;;;;10.13;2.38;;;4.70;89.50;;;;;;5014212;28;20543;-81
2022/01/20 06:30:12;;;;;;;9.63;2.00;;;4.70;89.40;;;;;;5015344;28;20045;-76
2022/01/20 06:32:38;;;;;;;13.57;2.72;;;4.60;89.30;;;;;;5023276;28;20113;-73
2022/01/20 06:35:04;;;;;;;10.43;2.88;;;4.60;89.30;;;;;;5035124;28;20489;-73
2022/01/20 06:37:30;;;;;;;14.73;2.30;;;4.60;89.40;;;;;;5018649;28;20040;-74
2022/01/20 06:39:56;;;;;;;12.52;2.58;;;4.60;89.50;;;;;;5018237;28;20500;-76
2022/01/20 06:42:22;;;;;;;10.57;2.50;;;4.60;89.50;;;;;;5017161;28;20191;-78
2022/01/20 06:44:48;;;;;;;12.52;2.50;;;4.50;89.50;;;;;;5018542;28;20030;-79
2022/01/20 06:47:14;;;;;;;10.60;2.40;;;4.50;89.60;;;;;;5018709;28;20033;-76
2022/01/20 06:49:40;;;;;;;9.50;2.13;;;4.40;89.60;;;;;;5018350;28;20111;-76
2022/01/20 06:52:06;;;;;;;11.38;2.72;;;4.40;89.80;;;;;;5015776;28;20124;-76
2022/01/20 06:54:32;;;;;;;12.38;2.63;;;4.30;89.90;;;;;;5016764;28;20022;-77
2022/01/20 06:56:59;;;;;;;10.20;2.35;;;4.20;90.10;;;;;;5015434;28;20250;-78
2022/01/20 06:59:25;;;;;;;10.75;2.38;;;4.20;90.30;;;;;;5016048;28;20377;-76
2022/01/20 07:01:51;;;;;;;8.32;1.80;;;4.20;90.50;;;;;;5017288;28;20428;-77
2022/01/20 07:04:17;;;;;;;11.73;3.80;;;4.10;90.60;;;;;;5011914;28;20108;-78
2022/01/20 07:06:43;;;;;;;11.45;3.13;;;4.20;90.70;;;;;;5017118;28;20051;-76
2022/01/20 07:09:10;;;;;;;11.18;3.10;;;4.10;90.70;;;;;;5014606;28;20524;-72
2022/01/20 07:11:37;;;;;;;12.23;3.17;;;4.10;90.70;;;;;;5018067;28;20037;-73
2022/01/20 07:14:03;;;;;;;14.05;4.05;;;4.10;90.80;;;;;;5017803;28;20602;-72
2022/01/20 07:16:29;;;;;;;14.90;4.88;;;4.10;90.80;;;;;;5017508;28;20041;-75
2022/01/20 07:18:55;;;;;;;14.48;3.67;;;4.10;90.70;;;;;;5018015;28;20394;-75
2022/01/20 07:21:21;;;;;;;13.93;3.35;;;4.10;90.70;;;;;;5010932;28;21168;-74
2022/01/20 07:23:48;;;;;;;13.50;3.72;;;4.20;90.70;;;;;;5014936;28;20565;-78
2022/01/20 07:26:13;;;;;;;12.35;3.88;;;4.20;90.70;;;;;;5015875;28;20029;-76
2022/01/20 07:28:39;;;;;;;13.85;3.60;;;4.30;90.80;;;;;;5017016;28;20560;-76
2022/01/20 07:31:07;;;;;;;17.23;3.78;;;4.30;90.80;;;;;;5015164;28;20026;-75
2022/01/20 07:33:33;;;;;;;14.52;4.07;;;4.30;90.70;;;;;;5013836;28;20465;-74
2022/01/20 07:35:58;;;;;;;11.98;3.42;;;4.30;90.80;;;;;;5016316;28;20040;-78
2022/01/20 07:38:24;;;;;;;13.93;4.05;;;4.30;90.80;;;;;;5013964;28;20029;-74
2022/01/20 07:40:50;;;;;;;16.15;4.50;;;4.30;90.90;;;;;;5017029;28;20041;-75
2022/01/20 07:43:16;;;;;;;19.67;4.97;;;4.30;91.00;;;;;;5014215;28;20034;-74
2022/01/20 07:45:42;;;;;;;14.93;4.38;;;4.30;91.10;;;;;;5008234;28;20033;-75
2022/01/20 07:48:07;;;;;;;15.43;3.90;;;4.30;91.10;;;;;;5010834;28;20045;-74
2022/01/20 07:50:33;;;;;;;21.40;5.28;;;4.30;91.00;;;;;;5006790;28;20064;-76
2022/01/20 07:52:59;;;;;;;21.70;4.50;;;4.40;90.60;;;;;;5006307;28;20832;-75
2022/01/20 07:55:24;;;;;;;15.60;3.97;;;4.40;90.30;;;;;;5007311;28;20033;-75
2022/01/20 07:57:50;;;;;;;14.93;3.72;;;4.50;89.90;;;;;;5004744;28;20064;-75
2022/01/20 08:00:16;;;;;;;16.45;3.67;;;4.50;89.60;;;;;;5005277;28;20033;-76
2022/01/20 08:02:43;;;;;;;20.77;4.18;;;4.50;89.40;;;;;;5007562;28;20080;-75
2022/01/20 08:05:09;;;;;;;18.80;3.90;;;4.50;89.40;;;;;;5007135;28;20034;-74
2022/01/20 08:07:34;;;;;;;20.60;3.58;;;4.50;89.10;;;;;;5004309;28;20030;-74
2022/01/20 08:10:00;;;;;;;14.15;3.42;;;4.50;89.10;;;;;;5005778;28;20439;-74
2022/01/20 08:12:27;;;;;;;19.25;4.35;;;4.60;89.10;;;;;;5006512;28;20423;-74
2022/01/20 08:14:53;;;;;;;27.70;6.30;;;4.50;89.10;;;;;;5011002;28;20037;-77
2022/01/20 08:17:19;;;;;;;20.05;4.25;;;4.60;89.20;;;;;;5009195;28;20117;-76
2022/01/20 08:19:45;;;;;;;16.65;5.25;;;4.60;89.30;;;;;;5013930;28;20491;-75
2022/01/20 08:22:11;;;;;;;23.25;5.30;;;4.60;89.20;;;;;;5014779;28;20040;-75
2022/01/20 08:24:36;;;;;;;16.23;3.78;;;4.60;89.20;;;;;;5011459;28;20034;-75
2022/01/20 08:27:02;;;;;;;20.48;4.75;;;4.60;89.30;;;;;;5015638;28;20540;-76
2022/01/20 08:29:28;;;;;;;20.13;5.70;;;4.60;89.30;;;;;;5013356;28;20375;-75
2022/01/20 08:31:54;;;;;;;17.73;4.18;;;4.60;89.40;;;;;;5003583;28;21623;-75
2022/01/20 08:34:19;;;;;;;17.40;3.40;;;4.60;89.40;;;;;;5003101;28;20034;-75
2022/01/20 08:36:45;;;;;;;16.73;5.00;;;4.50;89.40;;;;;;5002798;28;20042;-73
2022/01/20 08:41:55;;;;;;;15.90;4.07;;;4.50;89.30;;;;;;5010387;28;20129;-77
2022/01/20 08:44:21;;;;;;;18.77;4.65;;;4.50;88.80;;;;;;5008715;28;20049;-75
2022/01/20 08:46:47;;;;;;;19.38;5.32;;;4.60;88.70;;;;;;5007144;28;20076;-76
2022/01/20 08:49:13;;;;;;;20.08;5.80;;;4.60;88.50;;;;;;5006661;28;20042;-75
2022/01/20 08:51:40;;;;;;;17.80;5.80;;;4.70;88.50;;;;;;5007811;28;20038;-75
2022/01/20 08:54:05;;;;;;;21.80;4.93;;;4.70;88.60;;;;;;5004458;28;20491;-75
2022/01/20 08:56:34;;;;;;;19.20;4.85;;;4.70;88.60;;;;;;5005074;28;20049;-73
2022/01/20 08:59:00;;;;;;;28.45;7.13;;;4.70;88.60;;;;;;5006892;28;20289;-74
2022/01/20 09:01:26;;;;;;;25.15;6.70;;;4.80;88.80;;;;;;5006102;28;20124;-75
2022/01/20 09:03:52;;;;;;;18.60;6.10;;;4.80;88.80;;;;;;5008175;28;20041;-74
2022/01/20 09:06:17;;;;;;;19.92;5.85;;;4.80;88.70;;;;;;5004259;28;20804;-74
2022/01/20 09:08:43;;;;;;;24.67;6.20;;;4.80;88.50;;;;;;5001704;28;20099;-73
2022/01/20 09:11:18;;;;;;;26.27;6.47;;;4.90;88.40;;;;;;5009559;28;20159;-74
2022/01/20 09:16:29;;;;;;;23.00;5.53;;;4.90;87.40;;;;;;5009073;28;20384;-75
2022/01/20 09:18:55;;;;;;;22.83;3.60;;;4.90;86.40;;;;;;5014411;28;20038;-74
2022/01/20 09:21:23;;;;;;;22.58;6.68;;;5.00;85.00;;;;;;5014244;28;20044;-74
2022/01/20 09:23:48;;;;;;;16.13;4.32;;;5.00;84.80;;;;;;5013065;28;20384;-74
2022/01/20 09:26:14;;;;;;;20.40;4.50;;;5.10;84.80;;;;;;5011928;28;20040;-75
2022/01/20 09:28:40;;;;;;;22.13;3.50;;;5.10;84.80;;;;;;5011523;28;20548;-74
2022/01/20 09:31:07;;;;;;;14.25;3.40;;;5.10;84.80;;;;;;5008867;28;20045;-74
2022/01/20 09:33:33;;;;;;;18.77;4.18;;;5.10;84.80;;;;;;5008890;28;20610;-73
2022/01/20 09:35:59;;;;;;;17.33;3.40;;;5.20;84.80;;;;;;5013015;28;20077;-75
2022/01/20 09:38:26;;;;;;;17.52;3.33;;;5.20;84.80;;;;;;5013296;28;20049;-74
2022/01/20 09:40:52;;;;;;;17.65;3.95;;;5.20;84.90;;;;;;5014109;28;20954;-74
2022/01/20 09:43:18;;;;;;;14.52;2.95;;;5.30;85.00;;;;;;5014771;28;20637;-75
2022/01/20 09:45:49;;;;;;;16.38;4.93;;;5.40;85.40;;;;;;5013951;28;20042;-74
2022/01/20 09:48:16;;;;;;;16.58;3.78;;;5.50;85.10;;;;;;5010648;28;20049;-74
2022/01/20 09:50:42;;;;;;;18.73;3.60;;;5.60;84.80;;;;;;5013975;28;20037;-73
2022/01/20 09:53:08;;;;;;;20.50;3.92;;;5.70;84.30;;;;;;5013775;28;20037;-74
2022/01/20 09:55:35;;;;;;;17.33;4.22;;;5.70;84.00;;;;;;5013109;28;20540;-76
2022/01/20 09:58:02;;;;;;;23.58;4.35;;;5.80;83.70;;;;;;5012730;28;20038;-75
2022/01/20 10:00:28;;;;;;;15.65;4.22;;;6.00;83.30;;;;;;5013162;28;20037;-74
2022/01/20 10:02:59;;;;;;;21.83;3.50;;;6.10;82.40;;;;;;5013486;28;20034;-74
2022/01/20 10:05:26;;;;;;;16.25;3.58;;;6.10;81.50;;;;;;5012666;28;20026;-75
2022/01/20 10:07:52;;;;;;;16.67;3.78;;;6.10;81.40;;;;;;5016747;28;21586;-74
2022/01/20 10:10:17;;;;;;;30.13;10.77;;;6.00;81.20;;;;;;5016145;28;20083;-74
2022/01/20 10:12:43;;;;;;;18.38;4.93;;;5.80;81.00;;;;;;5017126;28;20080;-74
2022/01/20 10:15:11;;;;;;;20.00;5.38;;;5.80;80.80;;;;;;5017794;28;20034;-75
2022/01/20 10:17:38;;;;;;;18.50;5.82;;;5.80;81.10;;;;;;5014361;28;20504;-74
2022/01/20 10:20:07;;;;;;;17.73;5.00;;;5.70;81.00;;;;;;5015069;28;20044;-75
2022/01/20 10:22:36;;;;;;;15.20;4.60;;;5.70;81.00;;;;;;5014638;28;20049;-73
2022/01/20 10:25:08;;;;;;;17.08;4.20;;;5.60;80.40;;;;;;5011672;28;20555;-74
2022/01/20 10:27:59;;;;;;;18.67;4.80;;;5.50;80.70;;;;;;5015212;28;20037;-74
2022/01/20 10:30:30;;;;;;;13.63;3.95;;;5.50;80.40;;;;;;5016509;28;20128;-75
2022/01/20 10:32:58;;;;;;;13.70;2.97;;;5.50;80.40;;;;;;5010819;28;20049;-75
2022/01/20 10:35:27;;;;;;;10.73;3.30;;;5.60;79.90;;;;;;5014376;28;20047;-75
2022/01/20 10:37:58;;;;;;;9.60;2.92;;;5.80;79.40;;;;;;5012295;28;20042;-73
2022/01/20 10:40:24;;;;;;;8.32;2.50;;;6.10;78.30;;;;;;5015835;28;20030;-75
2022/01/20 10:42:50;;;;;;;12.20;3.67;;;6.00;76.60;;;;;;5017238;28;20048;-76
2022/01/20 10:45:25;;;;;;;11.23;2.65;;;5.90;77.20;;;;;;5014844;28;20048;-75
2022/01/20 10:47:57;;;;;;;12.25;2.42;;;5.90;76.00;;;;;;5016333;28;20179;-75
2022/01/20 10:50:29;;;;;;;12.52;2.72;;;5.90;77.00;;;;;;5016162;28;20469;-74
2022/01/20 10:52:56;;;;;;;11.70;3.05;;;5.90;76.40;;;;;;5016899;28;20037;-76
2022/01/20 10:55:31;;;;;;;13.43;3.17;;;6.00;77.40;;;;;;5010827;28;20711;-75
2022/01/20 10:58:15;;;;;;;13.35;2.53;;;6.10;77.20;;;;;;5012296;28;20041;-75
2022/01/20 11:00:44;;;;;;;10.88;3.00;;;6.20;77.00;;;;;;5017987;28;20415;-75
2022/01/20 11:03:09;;;;;;;17.63;3.10;;;6.10;77.20;;;;;;5015859;28;20459;-74
2022/01/20 11:05:35;;;;;;;13.82;2.95;;;6.00;77.90;;;;;;5016412;28;20287;-73
2022/01/20 11:08:01;;;;;;;16.35;4.70;;;6.00;79.10;;;;;;5015994;28;20096;-74
2022/01/20 11:10:27;;;;;;;16.55;3.75;;;6.00;79.50;;;;;;5011258;28;20033;-73
2022/01/20 11:12:53;;;;;;;10.70;2.85;;;5.90;79.40;;;;;;5009904;28;20108;-73
2022/01/20 11:15:20;;;;;;;16.08;2.53;;;5.80;77.70;;;;;;5013401;28;20563;-75
2022/01/20 11:17:52;;;;;;;12.75;2.67;;;5.80;77.90;;;;;;5015470;28;20590;-73
2022/01/20 11:20:25;;;;;;;13.25;2.83;;;5.90;77.20;;;;;;5014609;28;20719;-73
2022/01/20 11:23:02;;;;;;;12.05;2.35;;;5.80;76.30;;;;;;5016786;28;20038;-74
2022/01/20 11:25:31;;;;;;;10.68;3.35;;;5.90;76.60;;;;;;5013141;28;20199;-75
2022/01/20 11:28:09;;;;;;;14.07;4.10;;;6.10;77.50;;;;;;5012826;28;20088;-74
2022/01/20 11:30:42;;;;;;;18.13;2.75;;;6.10;76.90;;;;;;5010963;28;20380;-74
2022/01/20 11:33:15;;;;;;;11.55;2.88;;;6.10;76.60;;;;;;5013376;28;20140;-74
2022/01/20 11:35:43;;;;;;;16.52;3.28;;;6.20;77.30;;;;;;5012698;28;20465;-73
2022/01/20 11:38:11;;;;;;;12.55;2.75;;;6.10;76.20;;;;;;5024072;28;20037;-73
2022/01/20 11:40:51;;;;;;;11.95;2.88;;;6.10;75.50;;;;;;5025343;28;20025;-73
2022/01/20 11:43:17;;;;;;;13.35;3.25;;;6.20;75.40;;;;;;5006491;28;20499;-73
2022/01/20 11:45:50;;;;;;;12.52;2.72;;;6.30;75.80;;;;;;5008970;28;20025;-74
2022/01/20 11:48:21;;;;;;;14.30;2.25;;;6.30;75.10;;;;;;5002130;28;20034;-75
2022/01/20 11:51:00;;;;;;;12.43;2.60;;;6.20;73.70;;;;;;5001945;28;20038;-73
2022/01/20 11:53:25;;;;;;;11.98;2.92;;;6.20;73.90;;;;;;5002852;28;20440;-74
2022/01/20 11:55:53;;;;;;;15.52;2.90;;;6.30;72.70;;;;;;5003222;28;20096;-74
2022/01/20 11:58:21;;;;;;;11.43;2.17;;;6.30;72.20;;;;;;5003150;28;20044;-75
2022/01/20 12:01:06;;;;;;;13.52;3.20;;;6.20;71.10;;;;;;5003715;28;20137;-74
2022/01/20 12:03:34;;;;;;;16.00;3.28;;;6.20;72.60;;;;;;5003953;28;20068;-75
2022/01/20 12:06:01;;;;;;;14.10;3.83;;;6.10;72.50;;;;;;5003321;28;20124;-75
2022/01/20 12:08:27;;;;;;;14.02;2.50;;;6.20;72.50;;;;;;5009154;28;20030;-74
2022/01/20 12:11:05;;;;;;;21.45;3.30;;;6.40;71.90;;;;;;5000869;28;20064;-74
2022/01/20 12:13:31;;;;;;;16.00;3.60;;;6.40;71.70;;;;;;5014010;28;20041;-75
2022/01/20 12:16:00;;;;;;;14.50;3.65;;;6.60;72.50;;;;;;5013956;28;20095;-74
2022/01/20 12:18:26;;;;;;;13.63;2.95;;;6.70;73.20;;;;;;5014337;28;20117;-74
2022/01/20 12:20:52;;;;;;;9.93;2.40;;;6.80;71.90;;;;;;5016080;28;20128;-76
2022/01/20 12:23:19;;;;;;;16.70;3.75;;;6.90;71.20;;;;;;5011439;28;20040;-74
2022/01/20 12:25:45;;;;;;;11.77;3.60;;;6.90;69.80;;;;;;5014420;28;20057;-76
2022/01/20 12:28:16;;;;;;;13.75;2.92;;;7.10;70.30;;;;;;5014214;28;20099;-74
2022/01/20 12:30:47;;;;;;;11.15;2.38;;;7.10;69.40;;;;;;5012301;28;20026;-74
2022/01/20 12:33:17;;;;;;;9.10;2.20;;;6.90;71.40;;;;;;5012172;28;20497;-75
2022/01/20 12:35:44;;;;;;;15.13;2.63;;;6.20;75.70;;;;;;5018281;28;20175;-75
2022/01/20 12:38:20;;;;;;;13.38;3.92;;;5.80;75.30;;;;;;5015213;28;20040;-75
2022/01/20 12:40:48;;;;;;;12.88;3.40;;;5.70;75.90;;;;;;5012774;28;20091;-75
2022/01/20 12:43:15;;;;;;;9.02;3.00;;;5.70;76.50;;;;;;5014253;28;20029;-75
2022/01/20 12:45:56;;;;;;;11.48;2.75;;;5.70;76.90;;;;;;5017361;28;20512;-75
2022/01/20 12:48:22;;;;;;;16.13;4.65;;;5.60;76.20;;;;;;5010905;28;20433;-75
2022/01/20 12:50:55;;;;;;;15.20;4.03;;;5.60;75.80;;;;;;5017108;28;20080;-75
2022/01/20 12:53:54;;;;;;;13.95;6.10;;;5.60;75.40;;;;;;5012238;28;20123;-76
2022/01/20 12:56:33;;;;;;;13.70;3.80;;;5.60;75.70;;;;;;5007110;28;21629;-75
2022/01/20 12:58:59;;;;;;;11.30;4.30;;;5.60;76.20;;;;;;5011553;28;20120;-77
2022/01/20 13:01:25;;;;;;;15.65;4.57;;;5.80;75.50;;;;;;5011992;28;20044;-77
2022/01/20 13:03:51;;;;;;;16.95;4.18;;;6.00;75.40;;;;;;5014510;28;20034;-77
2022/01/20 13:06:24;;;;;;;15.38;4.43;;;6.20;74.50;;;;;;5012259;28;20095;-76
2022/01/20 13:09:07;;;;;;;11.88;3.13;;;6.50;74.70;;;;;;5013244;28;20366;-75
2022/01/20 13:11:54;;;;;;;20.77;6.97;;;6.60;73.50;;;;;;5008655;28;20030;-76
2022/01/20 13:14:31;;;;;;;21.92;8.35;;;6.70;73.40;;;;;;5014390;28;20117;-76
2022/01/20 13:16:57;;;;;;;19.80;4.28;;;6.80;73.80;;;;;;5007903;28;20034;-76
2022/01/20 13:19:39;;;;;;;16.67;3.85;;;6.70;73.20;;;;;;5011184;28;20037;-76
2022/01/20 13:22:18;;;;;;;21.95;5.00;;;6.70;74.20;;;;;;5008624;28;20124;-75
2022/01/20 13:24:43;;;;;;;16.02;3.92;;;6.60;73.70;;;;;;5014989;28;20057;-75
2022/01/20 13:27:12;;;;;;;17.75;5.38;;;6.60;74.70;;;;;;5013284;28;20433;-76
2022/01/20 13:29:41;;;;;;;19.08;4.30;;;6.70;74.70;;;;;;5010756;28;20074;-75
2022/01/20 13:32:07;;;;;;;21.10;3.60;;;6.60;74.30;;;;;;5010469;28;20140;-77
2022/01/20 13:34:33;;;;;;;16.88;4.00;;;6.60;72.90;;;;;;5014312;28;20394;-76
2022/01/20 13:36:59;;;;;;;11.50;3.40;;;6.60;73.90;;;;;;5013278;28;20095;-75
2022/01/20 13:39:35;;;;;;;15.52;2.72;;;6.30;76.00;;;;;;5008895;28;20037;-76
2022/01/20 13:45:15;;;;;;;15.00;3.10;;;5.60;78.80;;;;;;5017922;28;20041;-75
2022/01/20 13:47:57;;;;;;;12.07;3.15;;;5.50;80.70;;;;;;5012445;28;20501;-75
2022/01/20 13:50:50;;;;;;;15.52;3.30;;;5.40;81.00;;;;;;5014508;28;20136;-75
2022/01/20 13:53:20;;;;;;;11.63;2.72;;;5.50;80.80;;;;;;5015516;28;20049;-77
2022/01/20 13:55:49;;;;;;;16.10;4.57;;;5.60;81.50;;;;;;5016959;28;20033;-76
2022/01/20 13:58:22;;;;;;;12.63;3.13;;;5.60;81.10;;;;;;5017953;28;20066;-77
2022/01/20 14:00:48;;;;;;;10.93;2.53;;;5.40;81.80;;;;;;5013671;28;20038;-76